createdAt,value
2017-07-12T00:00:41.615Z,0
2017-07-12T00:01:41.595Z,0
2017-07-12T00:02:41.568Z,0
2017-07-12T00:03:40.636Z,0
2017-07-12T00:04:41.542Z,0
2017-07-12T00:05:41.514Z,0
2017-07-12T00:06:41.493Z,0
2017-07-12T00:07:40.563Z,0
2017-07-12T00:08:41.450Z,0
2017-07-12T00:09:41.428Z,0
2017-07-12T00:10:40.800Z,0
2017-07-12T00:11:41.390Z,0
2017-07-12T00:12:41.374Z,0
2017-07-12T00:13:41.068Z,0
2017-07-12T00:14:40.759Z,0
2017-07-12T00:15:41.003Z,0
2017-07-12T00:16:41.294Z,0
2017-07-12T00:17:41.271Z,0
2017-07-12T00:18:41.244Z,0
2017-07-12T00:19:40.923Z,0
2017-07-12T00:20:40.960Z,0
2017-07-12T00:21:41.192Z,0
2017-07-12T00:22:40.253Z,0
2017-07-12T00:23:40.839Z,0
2017-07-12T00:24:41.122Z,0
2017-07-12T00:25:40.804Z,0
2017-07-12T00:26:40.791Z,0
2017-07-12T00:27:41.066Z,0
2017-07-12T00:28:41.046Z,0
2017-07-12T00:29:40.729Z,0
2017-07-12T00:30:40.701Z,0
2017-07-12T00:31:40.681Z,0
2017-07-12T00:32:40.964Z,0
2017-07-12T00:33:40.939Z,0
2017-07-12T00:34:40.619Z,0
2017-07-12T00:35:40.930Z,0
2017-07-12T00:36:40.276Z,0
2017-07-12T00:37:40.562Z,0
2017-07-12T00:38:40.864Z,0
2017-07-12T00:39:40.521Z,0
2017-07-12T00:40:40.197Z,0
2017-07-12T00:41:40.781Z,0
2017-07-12T00:42:40.760Z,0
2017-07-12T00:43:40.134Z,0
2017-07-12T00:44:40.421Z,0
2017-07-12T00:45:40.397Z,0
2017-07-12T00:46:40.378Z,0
2017-07-12T00:47:40.403Z,0
2017-07-12T00:48:40.032Z,0
2017-07-12T00:49:40.322Z,0
2017-07-12T00:50:40.300Z,0
2017-07-12T00:51:40.329Z,0
2017-07-12T00:52:40.259Z,0
2017-07-12T00:53:40.236Z,0
2017-07-12T00:54:40.215Z,0
2017-07-12T00:55:40.200Z,0
2017-07-12T00:56:40.182Z,0
2017-07-12T00:57:39.854Z,0
2017-07-12T00:58:40.135Z,0
2017-07-12T00:59:40.119Z,0
2017-07-12T01:00:40.396Z,0
2017-07-12T01:01:40.385Z,0
2017-07-12T01:02:40.061Z,0
2017-07-12T01:03:39.731Z,0
2017-07-12T01:04:40.042Z,0
2017-07-12T01:05:39.691Z,0
2017-07-12T01:06:40.284Z,0
2017-07-12T01:07:40.264Z,0
2017-07-12T01:08:40.237Z,0
2017-07-12T01:09:40.223Z,0
2017-07-12T01:10:39.906Z,0
2017-07-12T01:11:40.183Z,0
2017-07-12T01:12:40.166Z,0
2017-07-12T01:13:40.140Z,0
2017-07-12T01:14:40.119Z,0
2017-07-12T01:15:40.103Z,0
2017-07-12T01:16:40.085Z,0
2017-07-12T01:17:39.448Z,0
2017-07-12T01:18:39.431Z,0
2017-07-12T01:19:39.429Z,0
2017-07-12T01:20:39.997Z,0
2017-07-12T01:21:39.680Z,0
2017-07-12T01:22:39.349Z,0
2017-07-12T01:23:39.635Z,0
2017-07-12T01:24:39.935Z,0
2017-07-12T01:25:39.597Z,0
2017-07-12T01:26:39.575Z,0
2017-07-12T01:27:39.251Z,0
2017-07-12T01:28:39.538Z,0
2017-07-12T01:29:39.821Z,0
2017-07-12T01:30:39.798Z,0
2017-07-12T01:31:39.839Z,0
2017-07-12T01:32:39.761Z,0
2017-07-12T01:33:39.737Z,0
2017-07-12T01:34:39.417Z,0
2017-07-12T01:35:39.453Z,0
2017-07-12T01:36:39.385Z,0
2017-07-12T01:37:39.660Z,0
2017-07-12T01:38:39.643Z,0
2017-07-12T01:39:39.624Z,0
2017-07-12T01:40:39.297Z,0
2017-07-12T01:41:39.271Z,0
2017-07-12T01:42:39.557Z,0
2017-07-12T01:43:39.238Z,0
2017-07-12T01:44:39.514Z,0
2017-07-12T01:45:39.500Z,0
2017-07-12T01:46:39.479Z,0
2017-07-12T01:47:39.455Z,0
2017-07-12T01:48:39.137Z,0
2017-07-12T01:49:39.417Z,0
2017-07-12T01:50:39.093Z,0
2017-07-12T01:51:39.076Z,0
2017-07-12T01:52:39.360Z,0
2017-07-12T01:53:39.031Z,0
2017-07-12T01:54:39.315Z,0
2017-07-12T01:55:39.309Z,0
2017-07-12T01:56:39.277Z,0
2017-07-12T01:57:39.257Z,0
2017-07-12T01:58:39.236Z,0
2017-07-12T01:59:38.912Z,0
2017-07-12T02:00:38.588Z,0
2017-07-12T02:01:38.874Z,0
2017-07-12T02:02:39.159Z,0
2017-07-12T02:03:39.132Z,0
2017-07-12T02:04:39.116Z,0
2017-07-12T02:05:39.094Z,0
2017-07-12T02:06:39.076Z,0
2017-07-12T02:07:39.057Z,0
2017-07-12T02:08:39.039Z,0
2017-07-12T02:09:39.019Z,0
2017-07-12T02:10:38.988Z,0
2017-07-12T02:11:38.976Z,0
2017-07-12T02:12:38.954Z,0
2017-07-12T02:13:38.933Z,0
2017-07-12T02:14:38.909Z,0
2017-07-12T02:15:38.590Z,0
2017-07-12T02:16:38.872Z,0
2017-07-12T02:17:38.848Z,0
2017-07-12T02:18:38.826Z,0
2017-07-12T02:19:38.508Z,0
2017-07-12T02:20:38.484Z,0
2017-07-12T02:21:38.773Z,0
2017-07-12T02:22:38.141Z,0
2017-07-12T02:23:38.726Z,0
2017-07-12T02:24:38.722Z,0
2017-07-12T02:25:38.693Z,0
2017-07-12T02:26:38.675Z,0
2017-07-12T02:27:38.649Z,0
2017-07-12T02:28:38.326Z,0
2017-07-12T02:29:38.301Z,0
2017-07-12T02:30:38.281Z,0
2017-07-12T02:31:38.260Z,0
2017-07-12T02:32:38.246Z,0
2017-07-12T02:33:38.525Z,0
2017-07-12T02:34:38.505Z,0
2017-07-12T02:35:38.185Z,0
2017-07-12T02:36:38.159Z,0
2017-07-12T02:37:38.144Z,0
2017-07-12T02:38:38.120Z,0
2017-07-12T02:39:38.409Z,0
2017-07-12T02:40:38.082Z,0
2017-07-12T02:41:38.363Z,0
2017-07-12T02:42:38.040Z,0
2017-07-12T02:43:38.021Z,0
2017-07-12T02:44:37.997Z,0
2017-07-12T02:45:37.976Z,0
2017-07-12T02:46:38.264Z,0
2017-07-12T02:47:37.938Z,0
2017-07-12T02:48:37.611Z,0
2017-07-12T02:49:37.897Z,0
2017-07-12T02:50:38.178Z,0
2017-07-12T02:51:37.855Z,0
2017-07-12T02:52:37.838Z,0
2017-07-12T02:53:37.816Z,4
2017-07-12T02:54:37.797Z,4
2017-07-12T02:55:37.776Z,4
2017-07-12T02:56:37.755Z,0
2017-07-12T02:57:37.729Z,4
2017-07-12T02:58:38.017Z,4
2017-07-12T02:59:37.745Z,4
2017-07-12T03:00:37.973Z,4
2017-07-12T03:01:37.665Z,8
2017-07-12T03:02:37.326Z,8
2017-07-12T03:03:37.925Z,8
2017-07-12T03:04:37.589Z,12
2017-07-12T03:05:37.264Z,16
2017-07-12T03:06:37.241Z,16
2017-07-12T03:07:37.835Z,16
2017-07-12T03:08:37.816Z,16
2017-07-12T03:09:37.797Z,20
2017-07-12T03:10:37.782Z,20
2017-07-12T03:11:37.146Z,24
2017-07-12T03:12:37.730Z,28
2017-07-12T03:13:37.406Z,28
2017-07-12T03:14:37.690Z,28
2017-07-12T03:15:37.671Z,36
2017-07-12T03:16:37.651Z,40
2017-07-12T03:17:37.627Z,44
2017-07-12T03:18:37.608Z,48
2017-07-12T03:19:37.280Z,52
2017-07-12T03:20:36.962Z,64
2017-07-12T03:21:37.546Z,76
2017-07-12T03:22:36.610Z,80
2017-07-12T03:23:36.894Z,84
2017-07-12T03:24:37.545Z,92
2017-07-12T03:25:37.474Z,100
2017-07-12T03:26:37.441Z,104
2017-07-12T03:27:37.121Z,116
2017-07-12T03:28:37.412Z,124
2017-07-12T03:29:37.387Z,132
2017-07-12T03:30:37.055Z,136
2017-07-12T03:31:37.338Z,136
2017-07-12T03:32:37.320Z,144
2017-07-12T03:33:36.998Z,148
2017-07-12T03:34:36.973Z,160
2017-07-12T03:35:36.955Z,172
2017-07-12T03:36:37.238Z,180
2017-07-12T03:37:36.911Z,188
2017-07-12T03:38:37.201Z,188
2017-07-12T03:39:37.173Z,192
2017-07-12T03:40:36.242Z,196
2017-07-12T03:41:36.829Z,196
2017-07-12T03:42:36.809Z,196
2017-07-12T03:43:36.789Z,204
2017-07-12T03:44:36.467Z,216
2017-07-12T03:45:36.441Z,236
2017-07-12T03:46:37.030Z,252
2017-07-12T03:47:36.709Z,264
2017-07-12T03:48:36.989Z,296
2017-07-12T03:49:36.976Z,348
2017-07-12T03:50:36.952Z,440
2017-07-12T03:51:36.628Z,560
2017-07-12T03:52:36.908Z,712
2017-07-12T03:53:36.581Z,880
2017-07-12T03:54:36.868Z,1124
2017-07-12T03:55:36.843Z,1464
2017-07-12T03:56:36.526Z,1868
2017-07-12T03:57:36.802Z,2204
2017-07-12T03:58:36.783Z,2312
2017-07-12T03:59:36.823Z,2236
2017-07-12T04:00:36.748Z,2096
2017-07-12T04:01:36.422Z,1944
2017-07-12T04:02:36.701Z,1788
2017-07-12T04:03:36.378Z,1624
2017-07-12T04:04:36.664Z,1420
2017-07-12T04:05:36.641Z,1196
2017-07-12T04:06:36.327Z,988
2017-07-12T04:07:36.295Z,816
2017-07-12T04:08:36.583Z,688
2017-07-12T04:09:36.561Z,616
2017-07-12T04:10:35.629Z,572
2017-07-12T04:11:36.518Z,540
2017-07-12T04:12:36.502Z,528
2017-07-12T04:13:36.176Z,520
2017-07-12T04:14:36.457Z,516
2017-07-12T04:15:36.132Z,500
2017-07-12T04:16:36.117Z,472
2017-07-12T04:17:36.396Z,452
2017-07-12T04:18:36.070Z,428
2017-07-12T04:19:36.356Z,412
2017-07-12T04:20:36.338Z,400
2017-07-12T04:21:36.313Z,388
2017-07-12T04:22:35.986Z,364
2017-07-12T04:23:35.862Z,332
2017-07-12T04:24:35.644Z,304
2017-07-12T04:25:36.231Z,284
2017-07-12T04:26:35.914Z,280
2017-07-12T04:27:35.582Z,292
2017-07-12T04:28:36.168Z,308
2017-07-12T04:29:35.851Z,324
2017-07-12T04:30:35.821Z,344
2017-07-12T04:31:36.108Z,344
2017-07-12T04:32:35.783Z,340
2017-07-12T04:33:35.765Z,328
2017-07-12T04:34:35.438Z,328
2017-07-12T04:35:35.724Z,356
2017-07-12T04:36:35.395Z,404
2017-07-12T04:37:35.372Z,460
2017-07-12T04:38:35.958Z,560
2017-07-12T04:39:35.634Z,816
2017-07-12T04:40:35.622Z,1000
2017-07-12T04:41:35.647Z,928
2017-07-12T04:42:35.273Z,892
2017-07-12T04:43:35.854Z,976
2017-07-12T04:44:35.532Z,1128
2017-07-12T04:45:35.573Z,1288
2017-07-12T04:46:35.490Z,1368
2017-07-12T04:47:35.164Z,1436
2017-07-12T04:48:35.450Z,1508
2017-07-12T04:49:35.429Z,1504
2017-07-12T04:50:35.413Z,1488
2017-07-12T04:51:35.395Z,1496
2017-07-12T04:52:35.673Z,1448
2017-07-12T04:53:35.646Z,1428
2017-07-12T04:54:35.571Z,1500
2017-07-12T04:55:35.604Z,1572
2017-07-12T04:56:35.282Z,1532
2017-07-12T04:57:35.560Z,1364
2017-07-12T04:58:34.939Z,1168
2017-07-12T04:59:35.325Z,1044
2017-07-12T05:00:35.891Z,1100
2017-07-12T05:01:35.487Z,1364
2017-07-12T05:02:35.199Z,1536
2017-07-12T05:03:35.135Z,1608
2017-07-12T05:04:35.417Z,1592
2017-07-12T05:05:35.096Z,1512
2017-07-12T05:06:35.079Z,1356
2017-07-12T05:07:35.052Z,1220
2017-07-12T05:08:35.334Z,1128
2017-07-12T05:09:35.314Z,952
2017-07-12T05:10:35.000Z,688
2017-07-12T05:11:34.968Z,484
2017-07-12T05:12:35.252Z,664
2017-07-12T05:13:35.228Z,900
2017-07-12T05:14:34.908Z,1184
2017-07-12T05:15:34.883Z,1616
2017-07-12T05:16:35.168Z,1892
2017-07-12T05:17:35.173Z,2016
2017-07-12T05:18:35.139Z,2072
2017-07-12T05:19:34.804Z,2056
2017-07-12T05:20:34.777Z,2024
2017-07-12T05:21:35.064Z,1860
2017-07-12T05:22:34.126Z,1704
2017-07-12T05:23:34.713Z,1940
2017-07-12T05:24:35.004Z,2064
2017-07-12T05:25:34.679Z,2128
2017-07-12T05:26:34.651Z,2424
2017-07-12T05:27:34.635Z,2720
2017-07-12T05:28:34.613Z,2576
2017-07-12T05:29:34.896Z,2632
2017-07-12T05:30:34.571Z,2704
2017-07-12T05:31:34.248Z,2872
2017-07-12T05:32:34.834Z,3264
2017-07-12T05:33:34.530Z,3444
2017-07-12T05:34:34.489Z,3316
2017-07-12T05:35:34.777Z,3388
2017-07-12T05:36:33.838Z,3808
2017-07-12T05:37:34.775Z,4528
2017-07-12T05:38:34.710Z,5164
2017-07-12T05:39:34.384Z,5416
2017-07-12T05:40:34.362Z,5388
2017-07-12T05:41:34.645Z,5220
2017-07-12T05:42:34.021Z,5028
2017-07-12T05:43:34.608Z,4892
2017-07-12T05:44:34.583Z,4712
2017-07-12T05:45:34.261Z,4544
2017-07-12T05:46:34.544Z,4376
2017-07-12T05:47:34.528Z,4188
2017-07-12T05:48:34.202Z,4064
2017-07-12T05:49:34.481Z,3920
2017-07-12T05:50:34.469Z,3652
2017-07-12T05:51:34.142Z,3324
2017-07-12T05:52:34.423Z,3232
2017-07-12T05:53:34.402Z,3412
2017-07-12T05:54:34.079Z,3752
2017-07-12T05:55:34.060Z,4272
2017-07-12T05:56:34.345Z,5060
2017-07-12T05:57:34.325Z,6108
2017-07-12T05:58:34.002Z,6992
2017-07-12T05:59:33.978Z,7500
2017-07-12T06:00:34.265Z,8160
2017-07-12T06:01:35.429Z,9288
2017-07-12T06:02:34.752Z,9676
2017-07-12T06:03:35.080Z,8928
2017-07-12T06:04:33.881Z,8228
2017-07-12T06:05:35.315Z,8104
2017-07-12T06:06:33.530Z,8280
2017-07-12T06:07:34.127Z,8904
2017-07-12T06:08:34.101Z,9436
2017-07-12T06:09:34.081Z,9964
2017-07-12T06:10:34.065Z,10388
2017-07-12T06:11:33.734Z,11512
2017-07-12T06:12:34.197Z,13204
2017-07-12T06:13:34.002Z,13136
2017-07-12T06:14:34.425Z,12000
2017-07-12T06:15:33.965Z,11296
2017-07-12T06:16:33.645Z,10516
2017-07-12T06:17:33.009Z,9336
2017-07-12T06:18:34.336Z,8368
2017-07-12T06:19:34.264Z,8240
2017-07-12T06:20:33.562Z,8452
2017-07-12T06:21:33.785Z,8040
2017-07-12T06:22:33.527Z,8232
2017-07-12T06:23:33.806Z,8568
2017-07-12T06:24:33.702Z,8600
2017-07-12T06:25:33.771Z,8588
2017-07-12T06:26:33.755Z,8288
2017-07-12T06:27:33.727Z,8392
2017-07-12T06:28:33.404Z,8208
2017-07-12T06:29:33.998Z,7596
2017-07-12T06:30:33.676Z,7972
2017-07-12T06:31:33.654Z,7924
2017-07-12T06:32:33.640Z,8048
2017-07-12T06:33:33.311Z,8720
2017-07-12T06:34:33.288Z,8448
2017-07-12T06:35:33.279Z,6960
2017-07-12T06:36:33.260Z,6880
2017-07-12T06:37:33.534Z,7868
2017-07-12T06:38:33.217Z,8492
2017-07-12T06:39:33.497Z,8812
2017-07-12T06:40:34.883Z,9292
2017-07-12T06:41:34.415Z,9496
2017-07-12T06:42:33.930Z,10360
2017-07-12T06:43:33.432Z,11068
2017-07-12T06:44:33.402Z,11772
2017-07-12T06:45:33.694Z,11872
2017-07-12T06:46:34.861Z,11472
2017-07-12T06:47:33.041Z,10004
2017-07-12T06:48:33.322Z,7256
2017-07-12T06:49:33.308Z,8012
2017-07-12T06:50:33.288Z,8692
2017-07-12T06:51:33.265Z,9352
2017-07-12T06:52:32.944Z,9556
2017-07-12T06:53:33.232Z,9320
2017-07-12T06:54:33.205Z,8832
2017-07-12T06:55:32.890Z,8532
2017-07-12T06:56:33.171Z,7940
2017-07-12T06:57:32.887Z,7000
2017-07-12T06:58:32.830Z,6072
2017-07-12T06:59:32.812Z,5872
2017-07-12T07:00:33.095Z,5628
2017-07-12T07:01:33.077Z,5644
2017-07-12T07:02:32.954Z,5928
2017-07-12T07:03:32.630Z,6316
2017-07-12T07:04:33.237Z,6808
2017-07-12T07:05:33.879Z,7184
2017-07-12T07:06:32.976Z,6868
2017-07-12T07:07:32.655Z,6384
2017-07-12T07:08:32.632Z,6216
2017-07-12T07:09:33.064Z,6232
2017-07-12T07:10:32.929Z,6672
2017-07-12T07:11:32.577Z,7472
2017-07-12T07:12:33.523Z,7920
2017-07-12T07:13:32.837Z,8080
2017-07-12T07:14:32.817Z,8644
2017-07-12T07:15:32.827Z,9516
2017-07-12T07:16:32.479Z,10240
2017-07-12T07:17:32.513Z,10628
2017-07-12T07:18:32.453Z,11312
2017-07-12T07:19:32.434Z,11812
2017-07-12T07:20:32.446Z,12300
2017-07-12T07:21:32.400Z,12428
2017-07-12T07:22:32.666Z,12328
2017-07-12T07:23:32.339Z,12224
2017-07-12T07:24:32.634Z,11932
2017-07-12T07:25:32.300Z,11668
2017-07-12T07:26:31.978Z,11308
2017-07-12T07:27:32.264Z,11204
2017-07-12T07:28:32.551Z,11780
2017-07-12T07:29:31.920Z,12780
2017-07-12T07:30:32.516Z,13240
2017-07-12T07:31:31.882Z,12856
2017-07-12T07:32:32.168Z,11616
2017-07-12T07:33:32.459Z,10416
2017-07-12T07:34:32.446Z,10256
2017-07-12T07:35:32.425Z,11172
2017-07-12T07:36:33.014Z,12148
2017-07-12T07:37:32.383Z,12768
2017-07-12T07:38:32.361Z,13348
2017-07-12T07:39:32.340Z,14464
2017-07-12T07:40:32.486Z,13952
2017-07-12T07:41:32.195Z,14656
2017-07-12T07:42:32.282Z,15384
2017-07-12T07:43:31.961Z,16372
2017-07-12T07:44:32.253Z,16924
2017-07-12T07:45:32.232Z,13196
2017-07-12T07:46:31.901Z,12108
2017-07-12T07:47:31.884Z,12104
2017-07-12T07:48:32.169Z,10528
2017-07-12T07:49:31.849Z,9536
2017-07-12T07:50:31.828Z,8640
2017-07-12T07:51:32.116Z,7476
2017-07-12T07:52:32.113Z,5488
2017-07-12T07:53:32.081Z,5972
2017-07-12T07:54:32.221Z,5496
2017-07-12T07:55:32.045Z,6268
2017-07-12T07:56:31.852Z,6120
2017-07-12T07:57:32.027Z,6028
2017-07-12T07:58:32.935Z,6632
2017-07-12T07:59:32.004Z,7212
2017-07-12T08:00:31.393Z,7360
2017-07-12T08:01:31.506Z,6692
2017-07-12T08:02:31.331Z,7644
2017-07-12T08:03:31.898Z,7956
2017-07-12T08:04:31.872Z,9672
2017-07-12T08:05:31.851Z,13284
2017-07-12T08:06:31.831Z,16052
2017-07-12T08:07:31.743Z,16716
2017-07-12T08:08:31.914Z,17004
2017-07-12T08:09:31.774Z,16500
2017-07-12T08:10:32.401Z,14876
2017-07-12T08:11:31.130Z,14528
2017-07-12T08:12:32.635Z,13228
2017-07-12T08:13:31.765Z,11800
2017-07-12T08:14:31.278Z,10400
2017-07-12T08:15:31.049Z,8432
2017-07-12T08:16:31.032Z,9748
2017-07-12T08:17:31.321Z,10768
2017-07-12T08:18:31.318Z,10412
2017-07-12T08:19:31.372Z,10120
2017-07-12T08:20:31.327Z,11508
2017-07-12T08:21:31.247Z,11304
2017-07-12T08:22:31.367Z,10720
2017-07-12T08:23:31.208Z,10540
2017-07-12T08:24:31.216Z,10092
2017-07-12T08:25:31.170Z,10356
2017-07-12T08:26:31.158Z,11780
2017-07-12T08:27:31.589Z,13792
2017-07-12T08:28:31.106Z,17848
2017-07-12T08:29:31.093Z,21216
2017-07-12T08:30:31.070Z,20096
2017-07-12T08:31:31.056Z,16444
2017-07-12T08:32:31.031Z,15760
2017-07-12T08:33:31.321Z,18240
2017-07-12T08:34:31.300Z,21728
2017-07-12T08:35:31.275Z,25824
2017-07-12T08:36:31.272Z,25600
2017-07-12T08:37:30.938Z,20128
2017-07-12T08:38:31.244Z,18112
2017-07-12T08:39:31.198Z,16144
2017-07-12T08:40:31.188Z,13480
2017-07-12T08:41:31.169Z,11072
2017-07-12T08:42:30.844Z,9632
2017-07-12T08:43:30.820Z,8996
2017-07-12T08:44:30.804Z,8356
2017-07-12T08:45:31.090Z,7848
2017-07-12T08:46:31.075Z,7532
2017-07-12T08:47:30.750Z,7416
2017-07-12T08:48:31.034Z,7564
2017-07-12T08:49:31.084Z,7948
2017-07-12T08:50:30.388Z,8372
2017-07-12T08:51:30.975Z,9108
2017-07-12T08:52:30.646Z,10116
2017-07-12T08:53:30.631Z,11772
2017-07-12T08:54:30.919Z,13532
2017-07-12T08:55:30.909Z,14524
2017-07-12T08:56:30.944Z,15232
2017-07-12T08:57:30.868Z,16004
2017-07-12T08:58:30.551Z,15092
2017-07-12T08:59:30.526Z,13468
2017-07-12T09:00:30.804Z,12920
2017-07-12T09:01:30.482Z,11932
2017-07-12T09:02:30.471Z,12372
2017-07-12T09:03:30.439Z,13400
2017-07-12T09:04:30.731Z,14552
2017-07-12T09:05:31.177Z,16028
2017-07-12T09:06:31.302Z,16916
2017-07-12T09:07:31.242Z,15948
2017-07-12T09:08:31.183Z,14944
2017-07-12T09:09:30.670Z,14468
2017-07-12T09:10:30.618Z,15588
2017-07-12T09:11:30.300Z,15444
2017-07-12T09:12:30.744Z,14920
2017-07-12T09:13:30.561Z,15048
2017-07-12T09:14:30.544Z,14892
2017-07-12T09:15:29.926Z,16748
2017-07-12T09:16:30.505Z,15948
2017-07-12T09:17:30.491Z,12752
2017-07-12T09:18:30.164Z,11188
2017-07-12T09:19:30.450Z,10520
2017-07-12T09:20:30.131Z,10432
2017-07-12T09:21:30.411Z,10588
2017-07-12T09:22:30.390Z,11148
2017-07-12T09:23:30.378Z,10520
2017-07-12T09:33:29.583Z,4120
2017-07-12T09:34:29.559Z,3872
2017-07-12T09:35:30.150Z,4000
2017-07-12T09:36:30.128Z,3804
2017-07-12T09:37:29.505Z,3752
2017-07-12T09:38:30.095Z,3580
2017-07-12T09:39:29.778Z,3724
2017-07-12T09:40:30.053Z,3796
2017-07-12T09:41:30.160Z,3680
2017-07-12T09:42:30.014Z,3816
2017-07-12T09:43:29.689Z,4004
2017-07-12T09:44:29.978Z,3788
2017-07-12T09:45:29.962Z,3892
2017-07-12T09:46:29.632Z,4536
2017-07-12T09:47:29.614Z,5800
2017-07-12T09:48:29.900Z,6756
2017-07-12T09:49:29.877Z,6240
2017-07-12T09:50:29.250Z,6300
2017-07-12T09:51:29.836Z,7616
2017-07-12T09:52:29.512Z,9096
2017-07-12T09:53:29.804Z,11040
2017-07-12T09:54:29.778Z,12776
2017-07-12T09:55:29.765Z,12764
2017-07-12T09:56:29.736Z,10288
2017-07-12T09:57:29.719Z,9560
2017-07-12T09:58:29.701Z,11876
2017-07-12T09:59:29.678Z,14404
2017-07-12T10:00:29.658Z,14872
2017-07-12T10:01:29.700Z,13384
2017-07-12T10:02:29.636Z,14088
2017-07-12T10:03:29.309Z,13800
2017-07-12T10:04:29.582Z,13820
2017-07-12T10:05:28.969Z,14688
2017-07-12T10:06:29.238Z,14480
2017-07-12T10:07:29.530Z,12304
2017-07-12T10:08:29.509Z,12476
2017-07-12T10:09:29.189Z,12716
2017-07-12T10:10:29.474Z,12260
2017-07-12T10:11:31.095Z,12824
2017-07-12T10:12:29.423Z,13120
2017-07-12T10:13:29.693Z,14228
2017-07-12T10:14:30.305Z,17308
2017-07-12T10:15:29.423Z,19520
2017-07-12T10:16:29.565Z,19968
2017-07-12T10:17:29.411Z,21184
2017-07-12T10:18:28.830Z,20864
2017-07-12T10:19:28.992Z,17580
2017-07-12T10:20:28.667Z,20384
2017-07-12T10:21:29.254Z,15140
2017-07-12T10:22:28.629Z,12260
2017-07-12T10:23:28.608Z,12348
2017-07-12T10:24:29.206Z,9200
2017-07-12T10:25:28.885Z,8188
2017-07-12T10:26:28.867Z,9776
2017-07-12T10:27:28.841Z,9528
2017-07-12T10:28:28.825Z,9216
2017-07-12T10:29:28.816Z,12684
2017-07-12T10:30:28.792Z,14008
2017-07-12T10:31:28.772Z,17076
2017-07-12T10:32:28.757Z,13632
2017-07-12T10:33:28.732Z,18064
2017-07-12T10:34:28.414Z,17744
2017-07-12T10:35:28.999Z,16444
2017-07-12T10:36:28.678Z,16708
2017-07-12T10:37:28.656Z,17364
2017-07-12T10:38:28.639Z,15284
2017-07-12T10:39:28.619Z,13464
2017-07-12T10:40:28.903Z,12256
2017-07-12T10:41:28.583Z,11180
2017-07-12T10:42:28.867Z,11476
2017-07-12T10:43:28.850Z,9868
2017-07-12T10:44:28.530Z,9904
2017-07-12T10:45:28.202Z,9548
2017-07-12T10:46:28.799Z,11012
2017-07-12T10:47:28.778Z,11540
2017-07-12T10:48:28.752Z,10924
2017-07-12T10:49:28.736Z,15292
2017-07-12T10:50:28.111Z,17940
2017-07-12T10:51:28.087Z,16144
2017-07-12T10:52:28.678Z,13764
2017-07-12T10:53:28.673Z,13340
2017-07-12T10:54:28.642Z,16244
2017-07-12T10:55:28.623Z,13600
2017-07-12T10:56:28.605Z,15096
2017-07-12T10:57:27.980Z,13700
2017-07-12T10:58:28.260Z,14244
2017-07-12T10:59:28.243Z,15096
2017-07-12T11:00:28.523Z,16784
2017-07-12T11:01:28.204Z,15320
2017-07-12T11:02:28.485Z,16296
2017-07-12T11:03:28.476Z,16232
2017-07-12T11:04:28.451Z,16980
2017-07-12T11:05:28.430Z,17728
2017-07-12T11:06:28.412Z,15672
2017-07-12T11:07:28.089Z,17388
2017-07-12T11:08:28.072Z,16628
2017-07-12T11:09:28.131Z,16876
2017-07-12T11:10:28.918Z,16856
2017-07-12T11:11:28.011Z,17516
2017-07-12T11:12:27.997Z,17772
2017-07-12T11:13:28.310Z,17300
2017-07-12T11:14:27.961Z,16696
2017-07-12T11:15:27.635Z,15392
2017-07-12T11:16:27.919Z,11920
2017-07-12T11:17:28.208Z,12496
2017-07-12T11:18:28.211Z,13500
2017-07-12T11:19:27.866Z,13800
2017-07-12T11:20:28.151Z,15580
2017-07-12T11:21:27.825Z,16196
2017-07-12T11:22:27.199Z,16492
2017-07-12T11:23:27.784Z,16112
2017-07-12T11:24:27.470Z,16360
2017-07-12T11:25:27.445Z,18272
2017-07-12T11:26:28.036Z,18496
2017-07-12T11:27:27.723Z,17824
2017-07-12T11:28:27.393Z,18752
2017-07-12T11:29:27.374Z,17944
2017-07-12T11:30:27.660Z,20096
2017-07-12T11:31:27.637Z,20608
2017-07-12T11:32:27.624Z,22592
2017-07-12T11:33:27.605Z,19552
2017-07-12T11:34:27.592Z,20224
2017-07-12T11:35:27.874Z,18272
2017-07-12T11:36:27.544Z,22688
2017-07-12T11:37:27.532Z,27008
2017-07-12T11:38:27.810Z,21856
2017-07-12T11:39:26.881Z,23904
2017-07-12T11:40:27.471Z,23648
2017-07-12T11:41:27.757Z,21760
2017-07-12T11:42:27.131Z,21504
2017-07-12T11:43:27.724Z,14172
2017-07-12T11:44:27.721Z,16232
2017-07-12T11:45:27.691Z,19072
2017-07-12T11:46:27.671Z,22816
2017-07-12T11:47:27.357Z,20704
2017-07-12T11:48:27.634Z,19680
2017-07-12T11:49:27.614Z,19552
2017-07-12T11:50:26.989Z,17060
2017-07-12T11:51:26.972Z,15620
2017-07-12T11:52:27.259Z,15252
2017-07-12T11:53:27.561Z,15036
2017-07-12T11:54:27.577Z,14392
2017-07-12T11:55:27.519Z,19680
2017-07-12T11:56:27.489Z,20608
2017-07-12T11:57:27.177Z,21184
2017-07-12T11:58:27.454Z,22016
2017-07-12T11:59:27.438Z,20832
2017-07-12T12:00:27.419Z,20192
2017-07-12T12:01:27.108Z,16884
2017-07-12T12:02:27.391Z,15004
2017-07-12T12:03:27.063Z,13516
2017-07-12T12:04:27.410Z,13856
2017-07-12T12:05:27.025Z,13052
2017-07-12T12:06:27.477Z,11240
2017-07-12T12:07:28.402Z,12032
2017-07-12T12:08:28.755Z,12016
2017-07-12T12:09:27.261Z,11060
2017-07-12T12:10:26.936Z,10820
2017-07-12T12:11:26.922Z,10672
2017-07-12T12:12:27.201Z,10304
2017-07-12T12:13:26.880Z,10280
2017-07-12T12:14:26.863Z,10464
2017-07-12T12:15:27.150Z,11552
2017-07-12T12:16:27.131Z,11296
2017-07-12T12:17:27.113Z,9788
2017-07-12T12:18:26.787Z,8804
2017-07-12T12:19:26.468Z,8616
2017-07-12T12:20:26.450Z,9704
2017-07-12T12:21:26.742Z,10008
2017-07-12T12:22:26.411Z,9660
2017-07-12T12:23:26.090Z,8384
2017-07-12T12:24:26.677Z,8104
2017-07-12T12:25:26.966Z,7880
2017-07-12T12:26:26.337Z,8492
2017-07-12T12:27:26.926Z,10400
2017-07-12T12:28:26.910Z,9628
2017-07-12T12:29:26.590Z,7336
2017-07-12T12:30:26.870Z,6956
2017-07-12T12:31:26.250Z,8280
2017-07-12T12:32:26.893Z,6720
2017-07-12T12:33:26.818Z,5196
2017-07-12T12:34:26.792Z,5656
2017-07-12T12:35:26.470Z,10228
2017-07-12T12:36:26.453Z,8736
2017-07-12T12:37:26.761Z,3424
2017-07-12T12:38:26.719Z,4192
2017-07-12T12:39:26.702Z,4024
2017-07-12T12:40:26.380Z,4160
2017-07-12T12:41:25.748Z,4564
2017-07-12T12:42:26.030Z,4820
2017-07-12T12:43:26.624Z,4884
2017-07-12T12:44:26.297Z,5088
2017-07-12T12:45:26.582Z,5524
2017-07-12T12:46:26.562Z,5708
2017-07-12T12:47:25.975Z,5952
2017-07-12T12:48:26.214Z,6356
2017-07-12T12:49:25.896Z,7064
2017-07-12T12:50:26.476Z,7264
2017-07-12T12:51:26.171Z,7024
2017-07-12T12:52:26.321Z,6352
2017-07-12T12:53:26.113Z,6580
2017-07-12T12:54:26.096Z,6360
2017-07-12T12:55:26.374Z,7792
2017-07-12T12:56:26.050Z,7844
2017-07-12T12:57:26.031Z,8800
2017-07-12T12:58:26.317Z,9088
2017-07-12T12:59:26.294Z,10032
2017-07-12T13:00:25.966Z,10416
2017-07-12T13:01:26.272Z,11008
2017-07-12T13:02:25.923Z,11624
2017-07-12T13:03:26.206Z,10936
2017-07-12T13:04:25.959Z,9500
2017-07-12T13:05:26.170Z,11472
2017-07-12T13:06:26.143Z,11524
2017-07-12T13:07:25.826Z,10152
2017-07-12T13:08:25.488Z,9260
2017-07-12T13:09:25.775Z,9112
2017-07-12T13:10:26.420Z,8748
2017-07-12T13:11:25.919Z,8944
2017-07-12T13:12:26.066Z,10048
2017-07-12T13:13:25.992Z,11200
2017-07-12T13:14:25.972Z,13444
2017-07-12T13:15:25.646Z,13332
2017-07-12T13:16:25.322Z,14748
2017-07-12T13:17:25.619Z,18368
2017-07-12T13:18:25.585Z,15892
2017-07-12T13:19:25.562Z,16648
2017-07-12T13:20:25.845Z,17356
2017-07-12T13:21:25.841Z,18272
2017-07-12T13:22:25.198Z,19808
2017-07-12T13:23:24.868Z,18080
2017-07-12T13:24:25.766Z,16876
2017-07-12T13:25:25.436Z,20672
2017-07-12T13:26:25.729Z,19200
2017-07-12T13:27:25.705Z,23680
2017-07-12T13:28:25.683Z,22752
2017-07-12T13:29:25.387Z,19808
2017-07-12T13:30:25.649Z,21440
2017-07-12T13:31:25.617Z,24768
2017-07-12T13:32:25.296Z,22432
2017-07-12T13:33:25.648Z,21376
2017-07-12T13:34:25.256Z,21824
2017-07-12T13:35:25.634Z,21376
2017-07-12T13:36:25.215Z,23136
2017-07-12T13:37:25.499Z,22176
2017-07-12T13:38:25.478Z,21824
2017-07-12T13:39:25.457Z,21120
2017-07-12T13:40:25.452Z,20416